createdAt,value
2022-08-19T00:01:30.371Z,17.41
2022-08-19T00:04:07.454Z,17.63
2022-08-19T00:06:36.331Z,17.80
2022-08-19T00:09:06.019Z,17.89
2022-08-19T00:11:32.865Z,17.68
2022-08-19T00:14:00.015Z,17.52
2022-08-19T00:16:27.124Z,17.51
2022-08-19T00:18:56.664Z,17.60
2022-08-19T00:21:25.681Z,17.76
2022-08-19T00:23:52.527Z,17.63
2022-08-19T00:26:19.318Z,17.62
2022-08-19T00:28:46.021Z,17.66
2022-08-19T00:31:12.722Z,17.54
2022-08-19T00:33:39.664Z,17.57
2022-08-19T00:36:08.589Z,17.57
2022-08-19T00:38:38.051Z,17.48
2022-08-19T00:41:06.498Z,17.49
2022-08-19T00:43:33.880Z,17.47
2022-08-19T00:46:00.596Z,17.39
2022-08-19T00:48:27.606Z,17.46
2022-08-19T00:50:55.299Z,17.50
2022-08-19T00:53:25.455Z,17.51
2022-08-19T00:55:55.816Z,17.40
2022-08-19T00:58:28.767Z,17.40
2022-08-19T01:00:55.701Z,17.43
2022-08-19T01:03:23.975Z,17.44
2022-08-19T01:05:52.771Z,17.46
2022-08-19T01:08:21.100Z,17.53
2022-08-19T01:10:56.057Z,17.54
2022-08-19T01:13:26.164Z,17.48
2022-08-19T01:15:57.694Z,17.44
2022-08-19T01:18:26.537Z,17.40
2022-08-19T01:20:57.257Z,17.40
2022-08-19T01:23:43.374Z,17.37
2022-08-19T01:26:21.380Z,17.37
2022-08-19T01:28:51.867Z,17.58
2022-08-19T01:31:26.725Z,17.50
2022-08-19T01:33:57.158Z,17.41
2022-08-19T01:36:28.493Z,17.44
2022-08-19T01:38:56.270Z,17.60
2022-08-19T01:41:24.447Z,17.57
2022-08-19T01:44:09.825Z,17.51
2022-08-19T01:46:40.506Z,17.49
2022-08-19T01:49:08.987Z,17.43
2022-08-19T01:51:39.747Z,17.49
2022-08-19T01:54:08.848Z,17.41
2022-08-19T01:56:35.998Z,17.36
2022-08-19T01:59:09.835Z,17.39
2022-08-19T02:01:37.582Z,17.37
2022-08-19T02:04:04.187Z,17.37
2022-08-19T02:06:30.845Z,17.36
2022-08-19T02:08:57.826Z,17.39
2022-08-19T02:11:43.020Z,17.33
2022-08-19T02:14:10.031Z,17.37
2022-08-19T02:16:37.609Z,17.38
2022-08-19T02:19:04.502Z,17.30
2022-08-19T02:21:31.736Z,17.35
2022-08-19T02:23:58.934Z,17.33
2022-08-19T02:26:27.537Z,17.29
2022-08-19T02:28:55.947Z,17.34
2022-08-19T02:31:25.853Z,17.36
2022-08-19T02:33:56.686Z,17.37
2022-08-19T02:36:25.275Z,17.33
2022-08-19T02:38:54.300Z,17.37
2022-08-19T02:41:29.769Z,17.45
2022-08-19T02:44:22.942Z,17.44
2022-08-19T02:46:51.751Z,17.36
2022-08-19T02:49:19.981Z,17.46
2022-08-19T02:51:47.322Z,17.30
2022-08-19T02:54:15.716Z,17.27
2022-08-19T02:56:44.235Z,17.28
2022-08-19T02:59:13.292Z,17.21
2022-08-19T03:01:42.501Z,17.22
2022-08-19T03:04:12.846Z,17.20
2022-08-19T03:06:41.733Z,17.16
2022-08-19T03:09:09.278Z,17.24
2022-08-19T03:11:36.060Z,17.25
2022-08-19T03:14:07.234Z,17.24
2022-08-19T03:16:35.572Z,17.33
2022-08-19T03:19:03.698Z,17.29
2022-08-19T03:21:33.141Z,17.25
2022-08-19T03:24:02.712Z,17.25
2022-08-19T03:26:30.804Z,17.23
2022-08-19T03:29:01.963Z,17.31
2022-08-19T03:31:44.892Z,17.32
2022-08-19T03:34:23.725Z,17.26
2022-08-19T03:36:50.417Z,17.19
2022-08-19T03:39:17.432Z,17.27
2022-08-19T03:41:48.514Z,17.44
2022-08-19T03:44:19.533Z,17.34
2022-08-19T03:47:06.289Z,17.37
2022-08-19T03:49:35.988Z,17.41
2022-08-19T03:52:08.184Z,17.31
2022-08-19T03:54:36.035Z,17.27
2022-08-19T03:57:04.344Z,17.28
2022-08-19T03:59:34.098Z,17.31
2022-08-19T04:02:04.089Z,17.34
2022-08-19T04:04:31.844Z,17.37
2022-08-19T04:06:59.165Z,17.37
2022-08-19T04:09:27.093Z,17.37
2022-08-19T04:11:57.043Z,17.39
2022-08-19T04:14:29.494Z,17.33
2022-08-19T04:16:56.267Z,17.31
2022-08-19T04:19:23.969Z,17.34
2022-08-19T04:21:54.426Z,17.44
2022-08-19T04:24:22.858Z,17.44
2022-08-19T04:26:50.508Z,17.48
2022-08-19T04:29:25.645Z,17.51
2022-08-19T04:31:54.844Z,17.56
2022-08-19T04:34:25.167Z,17.51
2022-08-19T04:36:54.296Z,17.48
2022-08-19T04:39:44.984Z,17.45
2022-08-19T04:42:31.513Z,17.45
2022-08-19T04:44:59.654Z,17.46
2022-08-19T04:47:48.315Z,17.45
2022-08-19T04:50:14.597Z,17.44
2022-08-19T04:52:44.627Z,17.41
2022-08-19T04:55:12.665Z,17.47
2022-08-19T04:57:41.500Z,17.49
2022-08-19T05:00:09.991Z,17.49
2022-08-19T05:02:38.245Z,17.51
2022-08-19T05:05:05.655Z,17.50
2022-08-19T05:07:32.603Z,17.47
2022-08-19T05:09:59.641Z,17.37
2022-08-19T05:12:28.808Z,17.47
2022-08-19T05:14:58.243Z,17.51
2022-08-19T05:17:28.504Z,17.51
2022-08-19T05:20:16.188Z,17.60
2022-08-19T05:22:45.409Z,17.58
2022-08-19T05:25:15.451Z,17.59
2022-08-19T05:27:43.341Z,17.60
2022-08-19T05:30:11.646Z,17.60
2022-08-19T05:32:40.105Z,17.57
2022-08-19T05:35:08.242Z,17.53
2022-08-19T05:37:35.147Z,17.58
2022-08-19T05:40:02.460Z,17.56
2022-08-19T05:42:29.625Z,17.53
2022-08-19T05:44:57.768Z,17.53
2022-08-19T05:47:24.845Z,17.60
2022-08-19T05:49:52.255Z,17.58
2022-08-19T05:52:25.935Z,17.63
2022-08-19T05:54:56.768Z,17.63
2022-08-19T05:57:24.940Z,17.69
2022-08-19T05:59:58.100Z,17.72
2022-08-19T06:02:31.624Z,17.77
2022-08-19T06:04:58.944Z,17.82
2022-08-19T06:07:26.197Z,17.88
2022-08-19T06:09:59.705Z,17.89
2022-08-19T06:12:34.256Z,17.83
2022-08-19T06:15:03.907Z,17.74
2022-08-19T06:17:32.395Z,17.76
2022-08-19T06:20:00.114Z,17.89
2022-08-19T06:22:28.528Z,17.85
2022-08-19T06:24:56.586Z,17.74
2022-08-19T06:27:23.940Z,17.85
2022-08-19T06:29:50.685Z,17.84
2022-08-19T06:32:19.971Z,17.94
2022-08-19T06:34:47.784Z,17.96
2022-08-19T06:37:15.462Z,17.85
2022-08-19T06:39:45.003Z,17.85
2022-08-19T06:42:14.416Z,17.99
2022-08-19T06:44:48.794Z,17.92
2022-08-19T06:47:23.070Z,17.93
2022-08-19T06:49:54.233Z,18.00
2022-08-19T06:52:21.205Z,18.04
2022-08-19T06:54:56.141Z,17.94
2022-08-19T06:57:25.615Z,17.92
2022-08-19T06:59:52.790Z,18.02
2022-08-19T07:02:20.688Z,18.10
2022-08-19T07:04:47.762Z,18.02
2022-08-19T07:07:21.823Z,18.14
2022-08-19T07:09:58.530Z,18.16
2022-08-19T07:12:30.365Z,18.13
2022-08-19T07:14:59.364Z,18.17
2022-08-19T07:17:27.204Z,18.22
2022-08-19T07:19:54.915Z,18.23
2022-08-19T07:22:24.399Z,18.28
2022-08-19T07:24:53.929Z,18.37
2022-08-19T07:27:24.512Z,18.41
2022-08-19T07:29:55.875Z,18.36
2022-08-19T07:32:27.374Z,18.42
2022-08-19T07:34:54.805Z,18.34
2022-08-19T07:37:21.499Z,18.34
2022-08-19T07:39:49.173Z,18.28
2022-08-19T07:42:16.221Z,18.26
2022-08-19T07:44:50.558Z,18.16
2022-08-19T07:47:49.559Z,18.22
2022-08-19T07:50:12.752Z,18.13
2022-08-19T07:52:40.841Z,18.19
2022-08-19T07:55:11.449Z,18.28
2022-08-19T07:57:58.795Z,18.42
2022-08-19T08:00:26.146Z,18.40
2022-08-19T08:02:55.850Z,18.49
2022-08-19T08:05:44.145Z,18.67
2022-08-19T08:08:31.278Z,18.88
2022-08-19T08:10:59.834Z,19.01
2022-08-19T08:13:30.096Z,19.08
2022-08-19T08:15:58.228Z,19.08
2022-08-19T08:18:27.842Z,19.03
2022-08-19T08:20:56.764Z,18.78
2022-08-19T08:23:26.744Z,18.72
2022-08-19T08:25:56.533Z,18.68
2022-08-19T08:28:26.252Z,18.55
2022-08-19T08:30:57.967Z,18.55
2022-08-19T08:33:33.968Z,18.45
2022-08-19T08:36:09.148Z,18.57
2022-08-19T08:38:39.695Z,18.53
2022-08-19T08:41:35.182Z,18.36
2022-08-19T08:44:05.394Z,18.27
2022-08-19T08:46:39.324Z,18.26
2022-08-19T08:49:25.610Z,18.30
2022-08-19T08:52:01.657Z,18.17
2022-08-19T08:54:49.068Z,18.03
2022-08-19T08:57:54.638Z,18.03
2022-08-19T09:00:27.686Z,17.99
2022-08-19T09:02:59.342Z,17.96
2022-08-19T09:05:48.592Z,17.92
2022-08-19T09:08:39.595Z,17.95
2022-08-19T09:11:16.519Z,17.93
2022-08-19T09:14:50.183Z,17.90
2022-08-19T09:17:18.922Z,17.85
2022-08-19T09:20:05.805Z,17.90
2022-08-19T09:22:40.438Z,18.00
2022-08-19T09:25:09.808Z,18.02
2022-08-19T09:27:42.868Z,18.18
2022-08-19T09:30:22.285Z,18.33
2022-08-19T09:32:52.823Z,18.33
2022-08-19T09:35:24.908Z,18.27
2022-08-19T09:37:57.791Z,18.33
2022-08-19T09:40:35.444Z,18.35
2022-08-19T09:43:09.969Z,18.52
2022-08-19T09:45:38.558Z,18.54
2022-08-19T09:48:06.131Z,18.53
2022-08-19T09:50:39.535Z,18.44
2022-08-19T09:53:19.192Z,18.50
2022-08-19T09:55:46.338Z,18.36
2022-08-19T09:58:14.782Z,18.36
2022-08-19T10:00:41.737Z,18.33
2022-08-19T10:03:09.497Z,18.23
2022-08-19T10:05:55.228Z,18.29
2022-08-19T10:08:32.694Z,18.62
2022-08-19T10:11:28.566Z,18.55
2022-08-19T10:13:48.617Z,18.45
2022-08-19T10:16:20.971Z,18.45
2022-08-19T10:18:49.732Z,18.44
2022-08-19T10:21:23.824Z,18.47
2022-08-19T10:23:56.005Z,18.47
2022-08-19T10:26:26.638Z,18.62
2022-08-19T10:28:53.897Z,18.67
2022-08-19T10:32:01.296Z,18.73
2022-08-19T10:34:27.056Z,18.83
2022-08-19T10:37:00.407Z,19.01
2022-08-19T10:39:31.000Z,19.24
2022-08-19T10:41:58.974Z,19.66
2022-08-19T10:44:32.680Z,19.92
2022-08-19T10:47:00.456Z,19.86
2022-08-19T10:49:28.150Z,19.88
2022-08-19T10:52:18.734Z,20.02
2022-08-19T10:55:08.335Z,19.82
2022-08-19T11:00:24.400Z,19.85
2022-08-19T11:02:52.167Z,19.86
2022-08-19T11:05:20.389Z,19.78
2022-08-19T11:07:53.653Z,19.56
2022-08-19T11:10:22.124Z,19.51
2022-08-19T11:12:49.663Z,19.51
2022-08-19T11:15:16.834Z,19.55
2022-08-19T11:17:44.912Z,19.53
2022-08-19T11:20:16.154Z,19.78
2022-08-19T11:22:43.365Z,20.21
2022-08-19T11:25:12.115Z,20.40
2022-08-19T11:27:43.576Z,20.45
2022-08-19T11:30:13.378Z,20.43
2022-08-19T11:32:45.888Z,20.33
2022-08-19T11:35:15.572Z,20.63
2022-08-19T11:37:43.636Z,20.62
2022-08-19T11:40:11.302Z,20.55
2022-08-19T11:42:56.575Z,20.59
2022-08-19T11:45:29.377Z,20.62
2022-08-19T11:47:56.738Z,20.66
2022-08-19T11:50:25.528Z,20.68
2022-08-19T11:52:56.008Z,20.65
2022-08-19T11:55:23.665Z,20.43
2022-08-19T11:57:50.437Z,20.68
2022-08-19T12:00:19.334Z,20.74
2022-08-19T12:02:46.067Z,20.83
2022-08-19T12:05:13.327Z,20.82
2022-08-19T12:07:45.001Z,20.67
2022-08-19T12:10:11.831Z,20.47
2022-08-19T12:12:43.807Z,20.48
2022-08-19T12:15:15.484Z,20.57
2022-08-19T12:17:43.529Z,20.62
2022-08-19T12:20:12.360Z,20.55
2022-08-19T12:22:39.184Z,20.69
2022-08-19T12:25:06.979Z,20.83
2022-08-19T12:27:40.170Z,20.85
2022-08-19T12:30:11.516Z,21.09
2022-08-19T12:32:39.176Z,20.94
2022-08-19T12:35:08.084Z,20.85
2022-08-19T12:37:35.189Z,20.71
2022-08-19T12:40:05.168Z,20.51
2022-08-19T12:42:31.962Z,20.40
2022-08-19T12:44:58.605Z,20.60
2022-08-19T12:47:27.479Z,20.47
2022-08-19T12:49:55.679Z,20.52
2022-08-19T12:52:24.836Z,20.61
2022-08-19T12:54:54.710Z,20.59
2022-08-19T12:57:32.592Z,20.51
2022-08-19T13:00:05.270Z,20.24
2022-08-19T13:02:38.594Z,20.27
2022-08-19T13:05:09.122Z,20.03
2022-08-19T13:07:36.401Z,19.82
2022-08-19T13:10:04.067Z,19.65
2022-08-19T13:12:30.755Z,19.75
2022-08-19T13:14:57.447Z,19.50
2022-08-19T13:17:25.336Z,19.63
2022-08-19T13:19:52.007Z,19.79
2022-08-19T13:22:18.981Z,20.21
2022-08-19T13:24:47.369Z,21.53
2022-08-19T13:27:16.122Z,22.44
2022-08-19T13:30:01.582Z,23.18
2022-08-19T13:32:49.155Z,23.36
2022-08-19T13:35:17.116Z,23.42
2022-08-19T13:37:44.959Z,23.87
2022-08-19T13:40:19.907Z,23.93
2022-08-19T13:42:49.107Z,24.01
2022-08-19T13:45:19.091Z,24.25
2022-08-19T13:47:53.600Z,25.19
2022-08-19T13:50:26.547Z,24.89
2022-08-19T13:52:54.322Z,24.88
2022-08-19T13:55:24.819Z,24.50
2022-08-19T13:57:57.793Z,24.18
2022-08-19T14:00:29.723Z,23.53
2022-08-19T14:02:58.007Z,23.85
2022-08-19T14:05:26.568Z,23.49
2022-08-19T14:07:54.532Z,23.34
2022-08-19T14:10:22.310Z,22.82
2022-08-19T14:12:53.580Z,22.08
2022-08-19T14:15:20.389Z,21.98
2022-08-19T14:17:50.098Z,21.58
2022-08-19T14:20:18.514Z,21.21
2022-08-19T14:22:47.826Z,20.72
2022-08-19T14:25:21.784Z,20.92
2022-08-19T14:27:49.321Z,21.01
2022-08-19T14:30:19.763Z,21.43
2022-08-19T14:32:49.835Z,21.27
2022-08-19T14:35:17.611Z,21.56
2022-08-19T14:37:46.663Z,22.09
2022-08-19T14:40:16.805Z,22.37
2022-08-19T14:42:44.619Z,22.55
2022-08-19T14:45:15.457Z,22.60
2022-08-19T14:47:42.297Z,22.90
2022-08-19T14:50:17.836Z,23.21
2022-08-19T14:52:48.677Z,23.52
2022-08-19T14:55:17.012Z,23.02
2022-08-19T14:57:44.442Z,22.71
2022-08-19T15:00:14.035Z,22.77
2022-08-19T15:02:42.093Z,23.23
2022-08-19T15:05:09.470Z,22.83
2022-08-19T15:07:36.830Z,22.33
2022-08-19T15:10:04.698Z,22.27
2022-08-19T15:12:31.415Z,22.06
2022-08-19T15:14:58.084Z,21.59
2022-08-19T15:17:32.412Z,21.21
2022-08-19T15:20:16.704Z,20.84
2022-08-19T15:22:43.394Z,20.78
2022-08-19T15:25:12.918Z,20.34
2022-08-19T15:27:42.333Z,20.18
2022-08-19T15:30:10.528Z,20.18
2022-08-19T15:32:37.992Z,20.04
2022-08-19T15:35:07.307Z,20.08
2022-08-19T15:37:37.300Z,19.80
2022-08-19T15:40:06.656Z,19.70
2022-08-19T15:42:34.334Z,19.66
2022-08-19T15:45:02.425Z,19.49
2022-08-19T15:47:35.207Z,19.51
2022-08-19T15:50:15.503Z,19.55
2022-08-19T15:52:50.464Z,19.70
2022-08-19T15:55:33.544Z,19.55
2022-08-19T15:58:28.307Z,19.48
2022-08-19T16:01:20.869Z,19.31
2022-08-19T16:04:14.857Z,19.19
2022-08-19T16:06:44.857Z,19.22
2022-08-19T16:09:13.359Z,19.07
2022-08-19T16:11:45.562Z,19.11
2022-08-19T16:14:17.385Z,19.21
2022-08-19T16:16:47.345Z,19.14
2022-08-19T16:19:17.550Z,19.04
2022-08-19T16:21:49.140Z,18.93
2022-08-19T16:24:18.186Z,19.02
2022-08-19T16:26:46.363Z,18.92
2022-08-19T16:29:14.350Z,18.87
2022-08-19T16:31:44.099Z,18.83
2022-08-19T16:34:12.404Z,18.86
2022-08-19T16:36:42.274Z,18.97
2022-08-19T16:39:15.455Z,18.88
2022-08-19T16:41:44.942Z,18.87
2022-08-19T16:44:14.775Z,18.76
2022-08-19T16:46:42.413Z,18.73
2022-08-19T16:49:11.436Z,18.74
2022-08-19T16:51:39.556Z,18.63
2022-08-19T16:54:06.439Z,18.65
2022-08-19T16:56:33.866Z,18.75
2022-08-19T16:59:01.291Z,18.74
2022-08-19T17:01:29.644Z,18.65
2022-08-19T17:03:57.235Z,18.60
2022-08-19T17:06:27.236Z,18.91
2022-08-19T17:08:59.033Z,18.82
2022-08-19T17:11:28.166Z,18.88
2022-08-19T17:13:59.305Z,18.49
2022-08-19T17:16:27.413Z,18.47
2022-08-19T17:18:57.893Z,18.39
2022-08-19T17:21:32.069Z,18.54
2022-08-19T17:24:00.760Z,18.56
2022-08-19T17:26:33.926Z,18.47
2022-08-19T17:29:01.028Z,18.16
2022-08-19T17:31:29.965Z,18.21
2022-08-19T17:33:59.222Z,18.03
2022-08-19T17:36:29.261Z,18.14
2022-08-19T17:38:58.555Z,18.01
2022-08-19T17:41:26.923Z,17.79
2022-08-19T17:43:53.977Z,17.71
2022-08-19T17:46:21.394Z,17.63
2022-08-19T17:48:52.761Z,17.65
2022-08-19T17:51:42.165Z,17.59
2022-08-19T17:54:16.781Z,17.64
2022-08-19T17:56:45.570Z,17.67
2022-08-19T17:59:14.107Z,17.63
2022-08-19T18:01:53.497Z,17.62
2022-08-19T18:04:23.614Z,17.59
2022-08-19T18:06:53.746Z,17.64
2022-08-19T18:09:41.787Z,17.57
2022-08-19T18:12:11.275Z,17.53
2022-08-19T18:14:39.603Z,17.50
2022-08-19T18:17:12.457Z,17.43
2022-08-19T18:19:42.987Z,17.45
2022-08-19T18:22:12.855Z,17.43
2022-08-19T18:24:42.377Z,17.38
2022-08-19T18:27:10.190Z,17.32
2022-08-19T18:29:38.771Z,17.18
2022-08-19T18:32:12.685Z,17.14
2022-08-19T18:34:41.816Z,17.19
2022-08-19T18:37:08.828Z,17.20
2022-08-19T18:39:54.494Z,17.23
2022-08-19T18:42:40.200Z,17.21
2022-08-19T18:45:26.537Z,17.11
2022-08-19T18:48:27.288Z,17.19
2022-08-19T18:50:58.836Z,17.03
2022-08-19T18:53:28.378Z,16.99
2022-08-19T18:55:55.836Z,16.95
2022-08-19T18:58:38.044Z,16.96
2022-08-19T19:01:13.073Z,16.96
2022-08-19T19:03:49.518Z,16.89
2022-08-19T19:06:25.723Z,16.81
2022-08-19T19:08:54.376Z,16.79
2022-08-19T19:11:30.415Z,16.70
2022-08-19T19:13:59.645Z,16.61
2022-08-19T19:16:26.619Z,16.64
2022-08-19T19:18:53.660Z,16.60
2022-08-19T19:21:23.426Z,16.55
2022-08-19T19:23:51.202Z,16.58
2022-08-19T19:26:18.553Z,16.48
2022-08-19T19:28:45.768Z,16.43
2022-08-19T19:31:26.614Z,16.42
2022-08-19T19:33:56.405Z,16.48
2022-08-19T19:36:24.197Z,16.52
2022-08-19T19:38:54.069Z,16.60
2022-08-19T19:41:26.558Z,16.56
2022-08-19T19:44:16.469Z,16.63
2022-08-19T19:46:43.095Z,16.65
2022-08-19T19:49:10.513Z,16.63
2022-08-19T19:51:41.177Z,16.59
2022-08-19T19:54:13.691Z,16.57
2022-08-19T19:56:43.443Z,16.61
2022-08-19T19:59:10.082Z,16.61
2022-08-19T20:01:37.060Z,16.73
2022-08-19T20:04:04.677Z,16.71
2022-08-19T20:06:31.396Z,16.84
2022-08-19T20:09:16.363Z,16.85
2022-08-19T20:11:53.922Z,16.99
2022-08-19T20:14:25.245Z,16.93
2022-08-19T20:16:53.156Z,16.97
2022-08-19T20:19:22.668Z,16.93
2022-08-19T20:21:51.487Z,16.91
2022-08-19T20:24:32.599Z,16.94
2022-08-19T20:27:03.817Z,16.91
2022-08-19T20:29:38.136Z,17.05
2022-08-19T20:32:05.589Z,16.94
2022-08-19T20:34:34.125Z,16.99
2022-08-19T20:37:00.944Z,17.05
2022-08-19T20:39:27.918Z,16.96
2022-08-19T20:41:56.687Z,17.00
2022-08-19T20:44:25.929Z,16.93
2022-08-19T20:46:56.765Z,16.95
2022-08-19T20:49:27.250Z,17.03
2022-08-19T20:51:55.215Z,17.00
2022-08-19T20:54:22.526Z,17.08
2022-08-19T20:56:49.195Z,17.00
2022-08-19T20:59:16.016Z,17.07
2022-08-19T21:01:43.054Z,17.05
2022-08-19T21:04:10.022Z,17.12
2022-08-19T21:06:38.480Z,17.05
2022-08-19T21:09:05.586Z,17.06
2022-08-19T21:11:32.382Z,17.01
2022-08-19T21:13:59.747Z,16.96
2022-08-19T21:16:26.756Z,16.94
2022-08-19T21:18:53.357Z,16.91
2022-08-19T21:21:20.622Z,16.85
2022-08-19T21:23:47.301Z,16.88
2022-08-19T21:26:14.008Z,16.88
2022-08-19T21:28:41.063Z,16.86
2022-08-19T21:31:10.695Z,16.95
2022-08-19T21:33:37.986Z,17.00
2022-08-19T21:36:05.917Z,16.89
2022-08-19T21:38:34.314Z,16.94
2022-08-19T21:41:06.004Z,16.94
2022-08-19T21:43:34.892Z,16.90
2022-08-19T21:46:04.327Z,16.93
2022-08-19T21:48:31.102Z,16.90
2022-08-19T21:50:58.051Z,16.92
2022-08-19T21:53:24.770Z,16.92
2022-08-19T21:55:58.377Z,16.88
2022-08-19T21:58:28.374Z,16.85
2022-08-19T22:00:59.085Z,16.91
2022-08-19T22:03:26.904Z,16.88
2022-08-19T22:05:54.392Z,16.86
2022-08-19T22:08:21.478Z,16.85
2022-08-19T22:10:49.777Z,16.91
2022-08-19T22:13:18.406Z,16.88
2022-08-19T22:15:52.131Z,16.82
2022-08-19T22:18:18.947Z,16.80
2022-08-19T22:20:45.757Z,16.76
2022-08-19T22:23:12.511Z,16.81
2022-08-19T22:25:42.986Z,16.77
2022-08-19T22:28:12.148Z,16.84
2022-08-19T22:30:41.685Z,16.75
2022-08-19T22:33:13.031Z,16.78
2022-08-19T22:35:41.609Z,16.75
2022-08-19T22:38:13.066Z,16.72
2022-08-19T22:40:43.038Z,16.73
2022-08-19T22:43:24.853Z,16.69
2022-08-19T22:45:53.764Z,16.93
2022-08-19T22:48:25.304Z,16.77
2022-08-19T22:51:11.659Z,16.75
2022-08-19T22:53:41.569Z,16.67
2022-08-19T22:56:14.966Z,16.56
2022-08-19T22:58:42.695Z,16.65
2022-08-19T23:01:11.759Z,16.61
2022-08-19T23:03:51.748Z,16.63
2022-08-19T23:06:18.987Z,16.62
2022-08-19T23:08:45.946Z,16.58
2022-08-19T23:11:12.721Z,16.56
2022-08-19T23:13:41.498Z,16.62
2022-08-19T23:16:08.683Z,16.58
2022-08-19T23:18:35.915Z,16.64
2022-08-19T23:21:09.453Z,16.62
2022-08-19T23:23:37.867Z,16.63
2022-08-19T23:26:06.466Z,16.74
2022-08-19T23:28:57.364Z,16.63
2022-08-19T23:31:26.375Z,16.60
2022-08-19T23:33:53.763Z,16.63
2022-08-19T23:36:22.047Z,16.57
2022-08-19T23:38:51.958Z,16.59
2022-08-19T23:41:21.554Z,16.59
2022-08-19T23:43:48.284Z,16.61
2022-08-19T23:46:27.992Z,16.63
2022-08-19T23:48:55.969Z,16.69
2022-08-19T23:51:23.150Z,16.72
2022-08-19T23:53:50.145Z,16.69
2022-08-19T23:56:16.800Z,16.76
2022-08-19T23:58:43.565Z,16.73
